Latest Coastal Weather Observations for Gold Coast Seaway

IDQ60701

Issued at 10:32 pm EST Monday 8 August 2022 (issued every 10 minutes, with the page automatically refreshed every 10 minutes)

About coastal observations | Map of coastal stations | Coastal observations for QLD | Marine services | Other Formats
Station Details ID: 040764 Name: GOLD COAST SEAWAY Lat: -27.94 Lon: 153.43 Height: 2.98 m
Data from the previous 72 hours. | See also: Recent months at Gold Coast Seaway
Date/Time
EST
Wind Sea
Height
m
Swell Vis
km
Cloud Weather Temp
°C
Press
MSL
hPa
Rain since
9am
mm
Dir  Spd
kts
Gust
kts
Height
m
Period
s
Dir
08/10:30pm S 5 7 - - - - - - - 13.4 1019.9 0.0
08/10:00pm SSW 5 7 - - - - - - - 13.9 1019.9 0.0
08/09:30pm SSW 5 7 - - - - - - - 14.3 1019.7 0.0
08/09:00pm SSW 7 11 - - - - - - - 14.7 1019.7 0.0
08/08:30pm S 6 10 - - - - - - - 14.9 1019.5 0.0
08/08:00pm S 10 15 - - - - - - - 15.7 1019.4 0.0
08/07:30pm S 10 13 - - - - - - - 15.7 1019.2 0.0
08/07:00pm SSE 12 17 - - - - - - - 16.3 1018.9 0.0
08/06:30pm SSE 13 19 - - - - - - - 16.6 1018.7 0.0
08/06:00pm SE 16 20 - - - - - - - 17.0 1018.4 0.0
08/05:30pm SE 18 23 - - - - - - - 17.1 1018.1 0.0
08/05:00pm SE 19 23 - - - - - - - 17.4 1017.8 0.0
08/04:30pm SE 18 24 - - - - - - - 17.7 1017.4 0.0
08/04:00pm SE 19 23 - - - - - - - 18.1 1017.1 0.0
08/03:30pm ESE 18 21 - - - - - - - 18.1 1017.0 0.0
08/03:00pm ESE 17 20 - - - - - - - 18.5 1017.0 0.0
08/02:30pm ESE 14 17 - - - - - - - 18.9 1016.9 0.0
08/02:00pm ESE 15 17 - - - - - - - 18.9 1017.1 0.0
08/01:30pm SE 9 12 - - - - - - - 20.4 1017.2 0.0
08/01:00pm SE 10 14 - - - - - - - 20.3 1017.4 0.0
08/12:30pm SE 9 13 - - - - - - - 20.2 1017.6 0.0
08/12:00pm SSE 6 9 - - - - - - - 20.3 1018.0 0.0
08/11:30am SE 9 12 - - - - - - - 19.4 1018.3 0.0
08/11:00am S 8 13 - - - - - - - 19.1 1018.8 0.0
08/10:30am SSE 10 16 - - - - - - - 18.8 1019.3 0.0
08/10:00am SSE 9 15 - - - - - - - 18.2 1019.5 0.0
08/09:30am S 9 14 - - - - - - - 17.8 1019.7 0.0
08/09:00am S 5 8 - - - - - - - 16.6 1019.7 0.0
08/08:30am WSW 3 8 - - - - - - - 15.1 1019.5 0.0
08/08:00am W 4 5 - - - - - - - 13.4 1019.4 0.0
08/07:30am WNW 3 5 - - - - - - - 12.0 1019.1 0.0
08/07:00am WNW 4 5 - - - - - - - 10.5 1018.7 0.0
08/06:30am W 5 6 - - - - - - - 9.9 1018.3 0.0
08/06:00am WSW 5 6 - - - - - - - 9.4 1018.1 0.0
08/05:30am WSW 5 5 - - - - - - - 9.9 1017.7 0.0
08/05:00am WSW 5 7 - - - - - - - 10.6 1017.3 0.0
08/04:30am WSW 5 6 - - - - - - - 9.6 1017.1 0.0
08/04:00am W 5 6 - - - - - - - 10.5 1016.8 0.0
08/03:30am WNW 4 5 - - - - - - - 9.2 1016.7 0.0
08/03:00am W 4 5 - - - - - - - 9.3 1016.7 0.0
08/02:30am W 4 6 - - - - - - - 10.6 1016.8 0.0
08/02:00am WSW 5 7 - - - - - - - 10.9 1016.9 0.0
08/01:30am SW 4 5 - - - - - - - 10.7 1017.0 0.0
08/01:00am SW 5 7 - - - - - - - 11.5 1017.2 0.0
08/12:30am WNW 4 6 - - - - - - - 11.0 1017.4 0.0
08/12:00am W 5 7 - - - - - - - 12.2 1017.4 0.0
 
Date/Time
EST
Wind Sea
Height
m
Swell Vis
km
Cloud Weather Temp
°C
Press
MSL
hPa
Rain since
9am
mm
Dir  Spd
kts
Gust
kts
Height
m
Period
s
Dir
07/11:30pm W 1 4 - - - - - - - 11.2 1017.5 0.0
07/11:00pm WSW 4 6 - - - - - - - 12.0 1017.7 0.0
07/10:30pm SSW 5 7 - - - - - - - 12.5 1017.7 0.0
07/10:00pm WSW 7 11 - - - - - - - 14.3 1017.5 0.0
07/09:30pm SW 5 7 - - - - - - - 11.9 1017.6 0.0
07/09:00pm W 4 5 - - - - - - - 11.0 1017.3 0.0
07/08:30pm CALM 0 0 - - - - - - - 12.2 1017.1 0.0
07/08:00pm WNW 4 6 - - - - - - - 14.5 1016.6 0.0
07/07:30pm SW 2 6 - - - - - - - 14.4 1016.5 0.0
07/07:00pm WNW 1 7 - - - - - - - 14.4 1016.3 0.0
07/06:30pm NW 2 5 - - - - - - - 16.4 1016.0 0.0
07/06:00pm NE 7 10 - - - - - - - 17.1 1015.6 0.0
07/05:30pm NE 10 13 - - - - - - - 17.4 1015.1 0.0
07/05:00pm NE 12 13 - - - - - - - 18.0 1014.8 0.0
07/04:30pm NE 11 13 - - - - - - - 18.8 1014.6 0.0
07/04:00pm NE 12 15 - - - - - - - 19.5 1014.4 0.0
07/03:30pm NE 11 13 - - - - - - - 19.5 1014.3 0.0
07/03:00pm NE 11 13 - - - - - - - 19.4 1014.3 0.0
07/02:30pm NE 11 13 - - - - - - - 19.8 1014.4 0.0
07/02:00pm NE 11 13 - - - - - - - 19.7 1014.7 0.0
07/01:30pm NE 10 12 - - - - - - - 19.8 1014.9 0.0
07/01:00pm NE 10 12 - - - - - - - 19.8 1015.1 0.0
07/12:30pm NE 10 12 - - - - - - - 19.2 1015.6 0.0
07/12:00pm NE 9 11 - - - - - - - 19.5 1016.0 0.0
07/11:30am NE 9 10 - - - - - - - 19.4 1016.4 0.0
07/11:00am ENE 7 9 - - - - - - - 19.1 1016.6 0.0
07/10:30am ENE 6 8 - - - - - - - 19.5 1016.9 0.0
07/10:00am ENE 6 7 - - - - - - - 19.0 1017.0 0.0
07/09:30am SW 1 4 - - - - - - - 18.8 1017.0 0.0
07/09:00am SW 4 7 - - - - - - - 18.1 1016.7 0.0
07/08:30am WSW 5 9 - - - - - - - 17.4 1016.6 0.0
07/08:00am WSW 6 9 - - - - - - - 16.4 1016.2 0.0
07/07:30am W 5 8 - - - - - - - 15.2 1016.0 0.0
07/07:00am WSW 5 8 - - - - - - - 14.2 1015.5 0.0
07/06:30am WSW 8 11 - - - - - - - 14.2 1015.2 0.0
07/06:00am WSW 7 10 - - - - - - - 14.0 1015.0 0.0
07/05:30am WSW 8 12 - - - - - - - 14.2 1014.5 0.0
07/05:00am WSW 9 12 - - - - - - - 14.4 1014.2 0.0
07/04:30am WSW 9 13 - - - - - - - 14.5 1013.9 0.0
07/04:00am WSW 10 16 - - - - - - - 15.2 1013.7 0.0
07/03:30am SW 12 20 - - - - - - - 15.4 1013.7 0.0
07/03:00am SW 11 17 - - - - - - - 15.8 1013.5 0.0
07/02:30am WSW 11 16 - - - - - - - 15.8 1013.3 0.0
07/02:00am WSW 9 16 - - - - - - - 15.9 1013.5 0.0
07/01:30am WSW 9 16 - - - - - - - 16.2 1013.8 0.0
07/01:00am WSW 8 13 - - - - - - - 16.2 1014.3 0.0
07/12:30am WSW 7 11 - - - - - - - 16.3 1014.4 0.0
07/12:00am WSW 7 11 - - - - - - - 16.4 1014.4 0.0
 
Date/Time
EST
Wind Sea
Height
m
Swell Vis
km
Cloud Weather Temp
°C
Press
MSL
hPa
Rain since
9am
mm
Dir  Spd
kts
Gust
kts
Height
m
Period
s
Dir
06/11:30pm WSW 8 15 - - - - - - - 16.6 1014.0 0.0
06/11:00pm W 9 13 - - - - - - - 16.2 1014.1 0.0
06/10:30pm W 6 8 - - - - - - - 16.4 1014.2 0.0
06/10:00pm W 7 11 - - - - - - - 16.9 1014.2 0.0
06/09:30pm SSW 2 6 - - - - - - - 15.8 1014.1 0.0
06/09:00pm WSW 7 12 - - - - - - - 18.1 1014.0 0.0
06/08:30pm WSW 9 15 - - - - - - - 18.5 1013.8 0.0
06/08:00pm WSW 7 10 - - - - - - - 18.4 1013.7 0.0
06/07:30pm W 5 8 - - - - - - - 18.7 1013.1 0.0
06/07:00pm WNW 6 9 - - - - - - - 18.8 1012.7 0.0
06/06:30pm WNW 7 9 - - - - - - - 18.9 1012.3 0.0
06/06:00pm NW 8 11 - - - - - - - 19.4 1012.0 0.0
06/05:30pm NNW 6 9 - - - - - - - 19.4 1011.7 0.0
06/05:00pm N 4 5 - - - - - - - 20.2 1011.7 0.0
06/04:30pm WNW 5 8 - - - - - - - 21.0 1011.4 0.0
06/04:00pm WNW 6 11 - - - - - - - 21.3 1011.0 0.0
06/03:30pm WNW 7 12 - - - - - - - 20.8 1011.1 0.0
06/03:00pm NW 6 10 - - - - - - - 21.7 1011.0 0.0
06/02:30pm NW 4 7 - - - - - - - 21.6 1011.1 0.0
06/02:00pm NW 7 11 - - - - - - - 21.1 1011.4 0.0
06/01:30pm WSW 5 8 - - - - - - - 20.4 1011.7 0.0
06/01:00pm W 6 10 - - - - - - - 19.9 1011.8 0.0
06/12:30pm W 6 10 - - - - - - - 19.7 1012.3 0.0
06/12:00pm W 6 11 - - - - - - - 19.6 1012.8 0.0
06/11:30am WNW 3 5 - - - - - - - 19.0 1013.1 0.0
06/11:00am WNW 3 5 - - - - - - - 18.7 1013.3 0.0
06/10:30am WNW 5 10 - - - - - - - 17.8 1013.8 0.0
06/10:00am W 5 9 - - - - - - - 17.6 1013.9 0.0
06/09:30am NW 5 8 - - - - - - - 17.4 1014.1 0.0
06/09:00am WNW 8 11 - - - - - - - 16.9 1014.2 3.2
06/08:30am WNW 8 11 - - - - - - - 16.5 1013.9 3.2
06/08:00am NW 8 10 - - - - - - - 16.3 1013.7 3.2
06/07:30am WNW 5 9 - - - - - - - 16.0 1013.4 3.2
06/07:00am NW 6 9 - - - - - - - 15.8 1013.3 3.2
06/06:30am WNW 6 8 - - - - - - - 15.5 1012.9 3.2
06/06:00am WNW 6 8 - - - - - - Recent precip. 15.5 1012.6 3.2
06/05:30am WNW 4 8 - - - - - - - 15.5 1012.2 3.2
06/05:00am WNW 7 11 - - - - - - - 15.4 1012.2 3.0
06/04:30am NW 7 11 - - - - - - - 15.4 1011.7 2.6
06/04:00am NW 6 9 - - - - - - - 15.9 1011.6 1.8
06/03:30am NNW 5 9 - - - - - - - 15.9 1011.9 1.8
06/03:00am NW 7 9 - - - - - - Recent precip. 16.0 1011.9 1.4
06/02:30am WSW 5 8 - - - - - - - 16.0 1012.4 1.2
06/02:00am WSW 8 13 - - - - - - - 17.5 1012.6 0.0
06/01:30am W 4 7 - - - - - - - 19.2 1012.3 0.0
06/01:00am W 4 6 - - - - - - - 18.9 1012.6 0.0
06/12:30am NW 2 3 - - - - - - - 18.6 1012.9 0.0
06/12:00am CALM 0 0 - - - - - - - 18.4 1012.9 0.0
 
Date/Time
EST
Wind Sea
Height
m
Swell Vis
km
Cloud Weather Temp
°C
Press
MSL
hPa
Rain since
9am
mm
Dir  Spd
kts
Gust
kts
Height
m
Period
s
Dir
05/11:30pm CALM 0 0 - - - - - - - 18.5 1012.9 0.0
05/11:00pm WSW 2 5 - - - - - - - 19.0 1013.2 0.0

Other formats

Comma delimited format used in spreadsheet applications
http://www.bom.gov.au/fwo/IDQ60701/IDQ60701.94580.axf

JavaScript Object Notation format (JSON) in row-major order
http://www.bom.gov.au/fwo/IDQ60701/IDQ60701.94580.json

Data quality

Most of these data are generated automatically and are frequently updated. Quality checks on data are not normally performed. It is possible for incorrect values to appear. Refer to information at About Latest Weather Observations and please check the disclaimer before using these data.